createdAt,value
2019-01-03T00:27:00.158Z,102364.41
2019-01-03T00:44:56.918Z,102390.70
2019-01-03T00:51:16.299Z,102392.94
2019-01-03T00:54:08.049Z,102399.46
2019-01-03T00:57:51.713Z,102396.11
2019-01-03T01:00:37.395Z,102390.08
2019-01-03T01:04:09.699Z,102397.36
2019-01-03T01:10:31.608Z,102402.13
2019-01-03T01:18:10.874Z,102407.77
2019-01-03T01:21:52.346Z,102403.92
2019-01-03T02:01:13.863Z,102399.98
2019-01-03T02:03:34.921Z,102395.64
2019-01-03T02:07:20.622Z,102383.92
2019-01-03T02:18:40.728Z,102388.34
2019-01-03T02:26:55.609Z,102397.87
2019-01-03T02:32:52.848Z,102405.31
2019-01-03T02:49:17.442Z,102404.01
2019-01-03T02:52:03.274Z,102395.16
2019-01-03T02:54:56.428Z,102391.27
2019-01-03T02:57:41.975Z,102395.63
2019-01-03T03:00:39.011Z,102392.97
2019-01-03T03:03:31.203Z,102395.56
2019-01-03T03:06:18.159Z,102390.55
2019-01-03T03:09:03.728Z,102385.30
2019-01-03T03:12:08.955Z,102379.23
2019-01-03T03:14:55.905Z,102383.42
2019-01-03T03:17:41.246Z,102383.50
2019-01-03T03:20:28.224Z,102379.64
2019-01-03T03:23:15.165Z,102373.13
2019-01-03T03:26:00.539Z,102384.80
2019-01-03T03:28:46.254Z,102384.09
2019-01-03T03:31:38.969Z,102376.69
2019-01-03T03:34:24.419Z,102375.30
2019-01-03T03:37:11.314Z,102369.75
2019-01-03T03:40:13.949Z,102369.67
2019-01-03T03:42:55.500Z,102367.44
2019-01-03T03:45:51.549Z,102362.17
2019-01-03T03:48:38.514Z,102351.83
2019-01-03T03:51:25.492Z,102353.90
2019-01-03T03:54:11.060Z,102355.68
2019-01-03T03:57:04.474Z,102350.81
2019-01-03T03:59:49.998Z,102353.41
2019-01-03T04:02:55.338Z,102357.73
2019-01-03T04:06:00.574Z,102357.73
2019-01-03T04:08:47.534Z,102356.00
2019-01-03T04:11:46.539Z,102350.72
2019-01-03T04:14:33.440Z,102357.29
2019-01-03T04:17:38.387Z,102353.27
2019-01-03T04:20:23.870Z,102355.00
2019-01-03T04:23:16.726Z,102352.81
2019-01-03T04:26:03.684Z,102349.86
2019-01-03T04:29:08.859Z,102353.26
2019-01-03T04:31:54.416Z,102354.91
2019-01-03T04:34:41.340Z,102340.64
2019-01-03T04:37:26.680Z,102340.14
2019-01-03T04:40:04.813Z,102340.95
2019-01-03T04:42:45.937Z,102341.89
2019-01-03T04:45:45.272Z,102340.15
2019-01-03T04:48:33.313Z,102349.33
2019-01-03T04:51:26.274Z,102354.82
2019-01-03T04:54:31.166Z,102354.81
2019-01-03T04:57:17.875Z,102352.27
2019-01-03T05:00:03.202Z,102354.45
2019-01-03T05:02:59.123Z,102354.92
2019-01-03T05:05:46.039Z,102358.94
2019-01-03T05:08:35.558Z,102353.31
2019-01-03T05:11:21.044Z,102351.52
2019-01-03T05:14:10.794Z,102350.71
2019-01-03T05:17:03.575Z,102347.31
2019-01-03T05:20:02.580Z,102360.52
2019-01-03T05:22:48.398Z,102361.81
2019-01-03T05:25:50.985Z,102369.10
2019-01-03T05:28:37.984Z,102364.16
2019-01-03T05:31:24.994Z,102364.08
2019-01-03T05:49:04.312Z,102339.58
2019-01-03T05:52:12.847Z,102362.02
2019-01-03T06:02:48.122Z,102366.31
2019-01-03T06:05:33.554Z,102360.11
2019-01-03T06:08:24.345Z,102364.08
2019-01-03T06:21:32.828Z,102357.66
2019-01-03T06:24:18.818Z,102348.61
2019-01-03T06:27:05.821Z,102357.25
2019-01-03T06:29:52.384Z,102360.73
2019-01-03T06:32:54.509Z,102361.18
2019-01-03T06:35:45.154Z,102357.16
2019-01-03T06:38:21.859Z,102358.80
2019-01-03T06:41:24.137Z,102357.41
2019-01-03T06:44:26.194Z,102353.13
2019-01-03T06:47:16.034Z,102348.33
2019-01-03T06:50:02.188Z,102350.03
2019-01-03T06:52:47.799Z,102351.77
2019-01-03T06:55:52.739Z,102351.28
2019-01-03T06:58:42.719Z,102359.10
2019-01-03T07:01:28.454Z,102358.66
2019-01-03T07:04:13.759Z,102368.98
2019-01-03T07:06:59.367Z,102366.39
2019-01-03T07:09:49.119Z,102375.83
2019-01-03T07:12:34.938Z,102375.33
2019-01-03T07:15:30.808Z,102379.63
2019-01-03T07:18:16.589Z,102372.19
2019-01-03T07:21:06.814Z,102375.23
2019-01-03T07:23:59.844Z,102384.75
2019-01-03T07:26:45.261Z,102389.40
2019-01-03T07:29:44.336Z,102394.20
2019-01-03T07:32:43.317Z,102390.36
2019-01-03T07:35:29.118Z,102388.51
2019-01-03T07:38:14.834Z,102388.95
2019-01-03T07:41:01.884Z,102394.20
2019-01-03T07:43:54.661Z,102393.64
2019-01-03T07:46:49.139Z,102395.94
2019-01-03T07:49:34.559Z,102395.00
2019-01-03T07:52:19.784Z,102400.59
2019-01-03T07:55:24.927Z,102413.16
2019-01-03T07:58:10.974Z,102418.70
2019-01-03T08:01:15.999Z,102420.73
2019-01-03T08:04:01.314Z,102413.30
2019-01-03T08:06:46.599Z,102413.69
2019-01-03T08:09:39.420Z,102423.13
2019-01-03T08:12:41.524Z,102421.38
2019-01-03T08:15:35.703Z,102411.38
2019-01-03T08:18:28.269Z,102407.43
2019-01-03T08:21:24.139Z,102418.67
2019-01-03T08:24:09.628Z,102423.86
2019-01-03T08:26:55.743Z,102418.11
2019-01-03T08:29:51.744Z,102415.84
2019-01-03T08:32:49.448Z,102404.55
2019-01-03T08:35:35.075Z,102408.83
2019-01-03T08:38:34.104Z,102418.68
2019-01-03T08:41:19.958Z,102419.46
2019-01-03T08:44:25.164Z,102424.21
2019-01-03T08:47:10.901Z,102431.42
2019-01-03T08:49:56.572Z,102432.66
2019-01-03T08:52:42.118Z,102434.93
2019-01-03T08:55:41.458Z,102443.50
2019-01-03T08:58:27.538Z,102443.05
2019-01-03T09:01:17.544Z,102447.69
2019-01-03T09:04:04.468Z,102442.92
2019-01-03T09:06:57.764Z,102447.23
2019-01-03T09:09:50.348Z,102447.11
2019-01-03T09:12:35.948Z,102451.84
2019-01-03T09:15:38.339Z,102443.27
2019-01-03T09:25:50.314Z,102453.42
2019-01-03T09:44:35.444Z,102447.74
2019-01-03T09:47:40.827Z,102439.02
2019-01-03T09:54:30.665Z,102439.59
2019-01-03T10:01:44.365Z,102444.91
2019-01-03T10:05:01.443Z,102445.41
2019-01-03T10:08:11.288Z,102438.24
2019-01-03T10:11:44.743Z,102430.63
2019-01-03T10:14:30.685Z,102436.88
2019-01-03T10:17:34.644Z,102430.19
2019-01-03T10:20:34.923Z,102441.53
2019-01-03T10:23:15.125Z,102435.09
2019-01-03T10:26:34.743Z,102434.19
2019-01-03T10:29:07.983Z,102429.19
2019-01-03T10:36:27.491Z,102412.13
2019-01-03T10:39:48.981Z,102413.69
2019-01-03T10:46:04.967Z,102403.77
2019-01-03T10:52:36.452Z,102415.28
2019-01-03T10:55:27.984Z,102424.61
2019-01-03T10:57:55.617Z,102423.17
2019-01-03T11:00:23.744Z,102419.64
2019-01-03T11:03:08.063Z,102419.41
2019-01-03T11:06:40.928Z,102414.96
2019-01-03T11:09:08.572Z,102413.50
2019-01-03T11:12:07.193Z,102405.77
2019-01-03T11:14:34.873Z,102408.00
2019-01-03T11:17:02.473Z,102401.41
2019-01-03T11:19:43.299Z,102411.75
2019-01-03T11:22:24.078Z,102405.55
2019-01-03T11:24:51.915Z,102403.48
2019-01-03T11:28:42.683Z,102398.78
2019-01-03T11:31:44.112Z,102402.22
2019-01-03T11:34:30.389Z,102404.99
2019-01-03T11:41:48.013Z,102405.87
2019-01-03T11:44:35.600Z,102404.53
2019-01-03T11:47:59.431Z,102401.05
2019-01-03T11:51:56.397Z,102398.95
2019-01-03T11:55:31.518Z,102394.09
2019-01-03T12:03:15.317Z,102396.13
2019-01-03T12:05:32.260Z,102381.08
2019-01-03T12:08:11.539Z,102375.94
2019-01-03T12:11:02.248Z,102368.08
2019-01-03T12:14:05.194Z,102361.66
2019-01-03T12:17:46.787Z,102359.88
2019-01-03T12:26:48.422Z,102378.52
2019-01-03T12:32:41.920Z,102382.42
2019-01-03T12:35:09.529Z,102384.92
2019-01-03T12:37:37.031Z,102383.13
2019-01-03T12:40:05.660Z,102386.17
2019-01-03T12:42:33.133Z,102382.80
2019-01-03T12:45:00.626Z,102382.65
2019-01-03T12:47:28.043Z,102384.70
2019-01-03T12:49:55.588Z,102388.08
2019-01-03T12:52:23.038Z,102382.42
2019-01-03T12:54:50.493Z,102377.05
2019-01-03T12:57:18.098Z,102368.95
2019-01-03T12:59:45.594Z,102360.11
2019-01-03T13:02:12.996Z,102360.31
2019-01-03T13:04:40.423Z,102361.33
2019-01-03T13:07:07.873Z,102368.34
2019-01-03T13:09:35.313Z,102357.25
2019-01-03T13:12:02.839Z,102353.22
2019-01-03T13:14:30.309Z,102366.15
2019-01-03T13:16:57.758Z,102370.83
2019-01-03T13:19:25.234Z,102382.13
2019-01-03T13:21:52.698Z,102382.06
2019-01-03T13:24:20.278Z,102380.41
2019-01-03T13:26:47.759Z,102379.41
2019-01-03T13:30:11.023Z,102383.55
2019-01-03T13:33:14.044Z,102385.55
2019-01-03T13:36:31.522Z,102383.74
2019-01-03T13:39:14.401Z,102382.49
2019-01-03T13:41:40.638Z,102387.32
2019-01-03T13:44:08.108Z,102388.38
2019-01-03T13:46:35.803Z,102391.06
2019-01-03T13:49:03.248Z,102393.59
2019-01-03T13:51:30.785Z,102394.98
2019-01-03T13:53:58.294Z,102392.81
2019-01-03T13:56:25.752Z,102389.33
2019-01-03T13:58:55.471Z,102391.17
2019-01-03T14:01:22.950Z,102388.33
2019-01-03T14:03:50.373Z,102393.67
2019-01-03T14:06:19.988Z,102389.39
2019-01-03T14:08:47.392Z,102395.05
2019-01-03T14:11:14.889Z,102398.33
2019-01-03T14:13:42.380Z,102395.96
2019-01-03T14:16:09.816Z,102406.63
2019-01-03T14:18:37.283Z,102396.36
2019-01-03T14:21:04.724Z,102397.59
2019-01-03T14:23:32.199Z,102395.89
2019-01-03T14:25:59.643Z,102391.63
2019-01-03T14:28:27.108Z,102389.70
2019-01-03T14:30:54.587Z,102393.61
2019-01-03T14:33:22.092Z,102398.34
2019-01-03T14:36:05.543Z,102405.00
2019-01-03T14:39:01.557Z,102407.62
2019-01-03T14:41:52.861Z,102413.61
2019-01-03T14:44:40.714Z,102408.54
2019-01-03T14:47:08.776Z,102411.08
2019-01-03T14:49:40.369Z,102415.89
2019-01-03T14:52:08.210Z,102416.66
2019-01-03T14:54:54.092Z,102420.11
2019-01-03T14:57:25.213Z,102428.15
2019-01-03T14:59:56.682Z,102419.58
2019-01-03T15:02:24.483Z,102416.58
2019-01-03T15:05:05.342Z,102415.73
2019-01-03T15:07:52.477Z,102413.30
2019-01-03T15:10:35.426Z,102409.98
2019-01-03T15:13:23.904Z,102405.61
2019-01-03T15:16:13.107Z,102406.20
2019-01-03T15:18:43.768Z,102400.02
2019-01-03T15:21:26.774Z,102389.70
2019-01-03T15:23:54.462Z,102393.53
2019-01-03T15:26:22.174Z,102395.44
2019-01-03T15:28:55.744Z,102395.10
2019-01-03T15:31:26.776Z,102391.34
2019-01-03T15:33:57.307Z,102392.78
2019-01-03T15:36:26.336Z,102400.27
2019-01-03T15:39:05.122Z,102404.17
2019-01-03T15:41:34.672Z,102409.70
2019-01-03T15:44:17.983Z,102413.98
2019-01-03T15:46:47.908Z,102418.67
2019-01-03T15:49:15.749Z,102426.81
2019-01-03T15:51:43.293Z,102430.12
2019-01-03T15:54:10.846Z,102435.30
2019-01-03T15:56:38.511Z,102435.70
2019-01-03T15:59:39.045Z,102438.76
2019-01-03T16:02:16.631Z,102447.47
2019-01-03T16:05:06.723Z,102443.95
2019-01-03T16:07:49.809Z,102442.64
2019-01-03T16:10:34.922Z,102448.91
2019-01-03T16:13:10.103Z,102450.68
2019-01-03T16:16:26.732Z,102449.11
2019-01-03T16:18:56.338Z,102453.09
2019-01-03T16:21:29.562Z,102463.94
2019-01-03T16:24:00.602Z,102463.35
2019-01-03T16:26:31.388Z,102467.66
2019-01-03T16:28:59.697Z,102463.95
2019-01-03T16:31:32.138Z,102471.70
2019-01-03T16:34:02.209Z,102472.88
2019-01-03T16:36:30.971Z,102470.77
2019-01-03T16:38:59.302Z,102479.02
2019-01-03T16:41:27.695Z,102472.02
2019-01-03T16:43:57.997Z,102478.59
2019-01-03T16:46:26.213Z,102474.42
2019-01-03T16:48:54.342Z,102474.77
2019-01-03T16:51:25.456Z,102473.45
2019-01-03T16:53:56.312Z,102471.89
2019-01-03T16:56:27.968Z,102478.06
2019-01-03T16:58:56.177Z,102485.97
2019-01-03T17:01:25.964Z,102479.48
2019-01-03T17:04:02.609Z,102478.31
2019-01-03T17:06:41.572Z,102486.17
2019-01-03T17:09:24.829Z,102484.94
2019-01-03T17:12:01.271Z,102489.33
2019-01-03T17:14:44.282Z,102489.80
2019-01-03T17:17:25.384Z,102485.95
2019-01-03T17:19:59.848Z,102487.77
2019-01-03T17:22:40.773Z,102477.02
2019-01-03T17:25:22.922Z,102469.80
2019-01-03T17:28:05.020Z,102472.91
2019-01-03T17:30:43.664Z,102477.77
2019-01-03T17:33:30.288Z,102488.66
2019-01-03T17:36:59.631Z,102490.11
2019-01-03T17:39:31.558Z,102492.70
2019-01-03T17:42:10.630Z,102493.16
2019-01-03T17:49:09.061Z,102481.63
2019-01-03T17:52:18.762Z,102464.40
2019-01-03T17:55:25.399Z,102464.89
2019-01-03T17:58:20.669Z,102461.45
2019-01-03T18:01:01.772Z,102470.18
2019-01-03T18:06:59.122Z,102472.52
2019-01-03T18:09:46.348Z,102467.41
2019-01-03T18:12:31.212Z,102471.81
2019-01-03T18:15:06.946Z,102467.47
2019-01-03T18:17:52.843Z,102476.23
2019-01-03T18:37:39.272Z,102493.27
2019-01-03T18:52:23.770Z,102485.61
2019-01-03T18:55:33.623Z,102493.02
2019-01-03T19:09:50.697Z,102491.94
2019-01-03T19:24:37.031Z,102486.00
2019-01-03T19:35:54.661Z,102503.74
2019-01-03T19:39:40.149Z,102513.26
2019-01-03T19:51:26.982Z,102528.16
2019-01-03T20:18:00.487Z,102520.44
2019-01-03T20:20:38.182Z,102522.23
2019-01-03T20:31:44.535Z,102522.85
2019-01-03T20:35:21.531Z,102532.39
2019-01-03T20:38:51.278Z,102522.50
2019-01-03T20:53:33.538Z,102538.93
2019-01-03T21:03:25.500Z,102540.67
2019-01-03T21:06:10.892Z,102546.73
2019-01-03T21:08:55.381Z,102545.03
2019-01-03T21:12:31.587Z,102547.17
2019-01-03T21:15:22.400Z,102549.70
2019-01-03T21:18:46.139Z,102552.72
2019-01-03T21:31:42.705Z,102546.67
2019-01-03T21:35:04.896Z,102540.55
2019-01-03T21:38:30.008Z,102532.41
2019-01-03T21:46:00.672Z,102531.67
2019-01-03T21:49:15.866Z,102531.25
2019-01-03T21:52:28.442Z,102540.75
2019-01-03T21:58:33.543Z,102543.80
2019-01-03T22:01:08.134Z,102539.95
2019-01-03T22:04:08.659Z,102530.89
2019-01-03T22:06:55.868Z,102526.09
2019-01-03T22:09:56.974Z,102522.19
2019-01-03T22:12:38.809Z,102518.80
2019-01-03T22:15:42.827Z,102519.28
2019-01-03T22:18:29.157Z,102513.59
2019-01-03T22:21:12.642Z,102509.72
2019-01-03T22:23:41.996Z,102506.70
2019-01-03T22:30:25.172Z,102501.98
2019-01-03T22:33:24.279Z,102498.52
2019-01-03T22:36:31.413Z,102485.11
2019-01-03T22:39:06.072Z,102492.95
2019-01-03T22:41:55.963Z,102492.55
2019-01-03T22:44:48.243Z,102488.66
2019-01-03T22:47:24.552Z,102493.42
2019-01-03T22:50:01.227Z,102492.16
2019-01-03T22:52:46.236Z,102485.24
2019-01-03T22:55:28.668Z,102489.11
2019-01-03T22:58:24.330Z,102499.05
2019-01-03T23:00:58.584Z,102491.25
2019-01-03T23:03:40.597Z,102491.25
2019-01-03T23:06:22.568Z,102489.95
2019-01-03T23:09:05.523Z,102493.36
2019-01-03T23:11:45.470Z,102491.20
2019-01-03T23:14:25.052Z,102496.77
2019-01-03T23:17:07.222Z,102495.84
2019-01-03T23:19:46.493Z,102490.29
2019-01-03T23:22:21.628Z,102497.16
2019-01-03T23:24:57.908Z,102494.07
2019-01-03T23:30:41.457Z,102491.94
2019-01-03T23:33:11.927Z,102480.80
2019-01-03T23:35:48.856Z,102484.31
2019-01-03T23:38:32.657Z,102480.86
2019-01-03T23:41:12.102Z,102476.94
2019-01-03T23:43:47.074Z,102471.27
2019-01-03T23:46:24.764Z,102468.23
2019-01-03T23:49:07.458Z,102481.13
2019-01-03T23:51:49.737Z,102470.47
2019-01-03T23:54:31.572Z,102474.81
2019-01-03T23:57:13.723Z,102475.66
2019-01-03T23:59:54.566Z,102478.72
